Details for AirAsia X Indonesia at WIII




Go Back


Latest METAR
Local Time

WIII 250100Z VRB05KT 4000 HZ SCT020 27/25 Q1009 NOSIG

25/05/2018, 12:03:37

Description
Results
AirAsia X Indonesia Logo
Number of Pilots based at WIII
0 Pilots Based here
Number of AirAsia X Indonesia Flights Departed from WIII
0 Flights Departed
Number of AirAsia X Indonesia Flights Arrived at WIII
0 Flights Arrived
Number of AirAsia X Indonesia Schedules Departing from WIII
13 Schedules
Number of AirAsia X Indonesia Schedules Arriving at WIII
13 Schedules
Number of AirAsia X Indonesia Schedules Departing from WIII availible today
13 Schedules Today
Number of AirAsia X Indonesia Schedules Arriving at WIII availible today
13 Schedules Today
Average Landing Rate at WIII
-246 fpm
AirAsia X Indonesia Average Landing Rate at WIII
0 fpm
Total Fuel Purchased at WIII by AirAsia X Indonesia
0.00 kgs / 0.00 lbs

Pilots Based at WIII


Pilot ID
Pilot Name
Pilot Rank
No. of Flights
No. of Flying Hours
There are no pilots assigned to this hub!   Will you be the first?
Content